AirNav   Duncan Aviation - Near you to keep you flying
 
 437 users online  

KCTJ West Georgia Regional Airport-O V Gray Field
Carrollton, Georgia, USA

GOING TO CARROLLTON?


FAA INFORMATION EFFECTIVE 09 SEPTEMBER 2021

Location

FAA Identifier: CTJ
Lat/Long: 33-37-54.1072N 085-09-08.1509W
33-37.901787N 085-09.135848W
33.6316964,-85.1522641
(estimated)
Elevation: 1164.5 ft. / 354.9 m (surveyed)
Variation: 04W (2005)
From city: 5 miles NW of CARROLLTON, GA
Time zone: UTC -4 (UTC -5 during Standard Time)
Zip code: 30117

Airport Operations

Airport use: Open to the public
Activation date: 10/1970
Control tower: no
ARTCC: ATLANTA CENTER
FSS: MACON FLIGHT SERVICE STATION
NOTAMs facility: MCN (NOTAM-D service available)
Attendance: MON-SAT 0800-1800, ALL SUN 1300-1700
Wind indicator: lighted
Segmented circle: yes
Lights: HIRL RWY 17/35 PRESET MED INTST DUSK-2200, AFT 2200 ACTVT - CTAF.
Beacon: white-green (lighted land airport)
Operates sunset to sunrise.

Airport Communications

CTAF/UNICOM: 122.975
WX AWOS-3: 118.175 (770-214-9667)
ATLANTA APPROACH: 121.0 [0645-2300]
ATLANTA DEPARTURE: 121.0 [0645-2300]
CLEARANCE DELIVERY: 121.6
WX AWOS-3 at PUJ (20 nm NE): 126.225 (770-445-3870)

Nearby radio navigation aids

VOR radial/distance  VOR name  Freq  Var
RMGr182/31.9ROME VORTAC115.4001E
LGCr003/35.1LAGRANGE VORTAC115.6001E
ATLr275/35.8ATLANTA VORTAC116.9005W

 
NDB name  Hdg/Dist  Freq  Var  ID
CARROLLTON349/4.127804WGPQ --. .--. --.-
COWETA COUNTY319/31.423403WEQQ . --.- --.-
PECAT306/38.831605WFFC ..-. ..-. -.-.

Airport Services

Fuel available: 100LL JET-A+ MOGAS
Parking: hangars and tiedowns
Airframe service: MAJOR
Powerplant service: MAJOR
Bottled oxygen: NONE
Bulk oxygen: NONE

Runway Information

Runway 17/35

Dimensions: 5503 x 100 ft. / 1677 x 30 m
Surface: asphalt, in good condition
Weight bearing capacity: 
Single wheel: 43.0
Double wheel: 56.0
Double tandem: 83.0
Runway edge lights: high intensity
RUNWAY 17  RUNWAY 35
Latitude: 33-38.337483N33-37.466088N
Longitude: 085-09.286862W085-08.984835W
Elevation: 1164.4 ft.1110.2 ft.
Traffic pattern: leftleft
Runway heading: 168 magnetic, 164 true348 magnetic, 344 true
Markings: nonprecision, in good conditionprecision, in good condition
Visual slope indicator: 4-light PAPI on left (3.00 degrees glide path)4-light PAPI on left (3.00 degrees glide path)
Touchdown point: yes, no lightsyes, no lights
Instrument approach: LOC/GS
Obstructions: 26 ft. trees, 694 ft. from runway, 480 ft. left of centerline, 19:1 slope to clear40 ft. trees, 1000 ft. from runway, 554 ft. right of centerline, 20:1 slope to clear

Airport Ownership and Management from official FAA records

Ownership: Publicly-owned
Owner: WEST GA ARPT AUTH
P.O. BOX 146
BOWDEN JUNCTION, GA 30109
Phone 770-354-5927
Manager: SUSAN HEATH
P.O. BOX 146
BOWDEN JUNCTION, GA 30109
Phone 770-354-5927

Airport Operational Statistics

Aircraft based on the field: 94
Single engine airplanes: 76
Multi engine airplanes: 15
Jet airplanes: 1
Helicopters: 1
Gliders airplanes: 1
    
Aircraft operations: avg 82/day *
49% transient general aviation
49% local general aviation
2% military
* for 12-month period ending 31 July 2020

Additional Remarks

DEER AND TURKEYS ON & NEAR RWYS AT ALL TIMES.
FOR APCH/DEP SVC CTC ATLANTA APCH AT 678-364-6131. IF RLS TIME IS EXPD TO BE LESS THAN 5 MINS, CTC CD.

Instrument Procedures

NOTE: All procedures below are presented as PDF files. If you need a reader for these files, you should download the free Adobe Reader.

NOT FOR NAVIGATION. Please procure official charts for flight.
FAA instrument procedures published for use from 09 September 2021 at 0901Z to 07 October 2021 at 0900Z.

 
STARs - Standard Terminal Arrivals
DEHAN THREE (RNAV)   2 pages: [1] [2] (325KB)
 
IAPs - Instrument Approach Procedures
ILS OR LOC RWY 35   download (248KB)
RNAV (GPS) RWY 17   download (239KB)
RNAV (GPS) RWY 35 **CHANGED**   download (246KB)
NOTE: Special Alternate Minimums apply   download (153KB)
NOTE: Special Take-Off Minimums/Departure Procedures apply   download (479KB)

Other nearby airports with instrument procedures:

KPUJ - Paulding Northwest Atlanta Airport (20 nm NE)
4A4 - Polk County Airport/Cornelius Moore Field (23 nm N)
KCCO - Newnan Coweta County Airport (27 nm SE)
KFTY - Fulton County Executive Airport/Charlie Brown Field (33 nm E)
KVPC - Cartersville Airport (33 nm NE)
 
Loc | Ops | Rwys | IFR | FBO | Links
Com | Nav | Svcs | Stats | Notes
Area around KCTJ (West Georgia Regional Airport-O V Gray Field)
 
Road maps at: MapQuest Bing Google
 
Aerial photo
WARNING: Photo may not be current or correct
Aerial photo of KCTJ (West Georgia Regional Airport-O V Gray Field)
Photo courtesy of AirNav, LLC
Photo taken 22-Dec-2012
looking south.

Do you have a better or more recent aerial photo of West Georgia Regional Airport-O V Gray Field that you would like to share? If so, please send us your photo.

 
Sectional chart

 
Airport distance calculator
Flying to West Georgia Regional Airport-O V Gray Field? Find the distance to fly.

From to KCTJ

Sunrise and sunset
Times for 25-Sep-2021
 Local
(UTC-4)
 Zulu
(UTC)
Morning civil twilight07:0711:07
Sunrise07:3211:32
Sunset19:3323:33
Evening civil twilight19:5823:58

Current date and time
Zulu (UTC)  25-Sep-2021 10:31:31
Local (UTC-4)  25-Sep-2021 06:31:31
 
METAR
KCTJ 251015Z AUTO 00000KT 10SM CLR 10/09 A3014 RMK AO2 T00950089
KPUJ 
20nm NE 
251015Z AUTO 00000KT 10SM CLR 11/11 A3011 RMK AO2
TAF
KFTY 
33nm E 
251005Z 2510/2606 00000KT P6SM SKC FM251300 VRB03KT P6SM SCT200 FM251600 29006KT P6SM FEW080 FEW250 FM260100 00000KT P6SM SKC
KANB 
35nm W 
250534Z 2506/2606 VRB02KT P6SM FEW250 TEMPO 2509/2512 4SM BR FM251700 30007KT P6SM SKC FM260000 00000KT P6SM SKC
KATL 
35nm E 
250949Z 2510/2612 31003KT P6SM SCT250 FM251300 27005KT P6SM SCT150 FM251800 30008KT P6SM FEW250 FM260400 31005KT P6SM SKC
KRYY 
36nm NE 
251005Z 2510/2606 00000KT P6SM SKC FM251300 VRB03KT P6SM SCT250 FM251600 31008KT P6SM FEW120 FM260100 00000KT P6SM SKC
KMGE 
36nm NE 
250500Z 2505/2611 VRB06KT 9999 FEW260 QNH3001INS TX26/2520Z TN13/2512Z
NOTAMs
Click for the latest NOTAMs
NOTAMs are issued by the DoD/FAA and will open in a separate window not controlled by AirNav.

 

 
 

FBO, Fuel Providers, and Aircraft Ground Support

  
 Business Name 
 
 Contact 
 
 Services / Description 
 
Fuel Prices
 
Comments
  
West Georgia Regional Airport 770-834-0061
770-558-0536
[web site]
[email]
Airport management, Aviation fuel, Aircraft ground handling, Aircraft parking (ramp or tiedown), Hangars, Hangar leasing / sales, GPU / Power cart, ...
 
Phillips 66® Aviation Contract Fuel  
 
More info about West Georgia Regional Airport
Phillips 66
100LL Jet A Mogas
FS $4.94 $4.24 --- 
SS $4.29 $3.24 $4.65 
 Updated 23-Sep-2021
 
   4 read write
FS=Full service
SS=Self service
Update Fuel Prices
 

Would you like to see your business listed on this page?

 If your business provides an interesting product or service to pilots, flight crews, aircraft, or users of the West Georgia Regional Airport-O V Gray Field, you should consider listing it here.  To start the listing process, click on the button below
 
Add a business
 

Other Pages about West Georgia Regional Airport-O V Gray Field

Update a link
 
Copyright © AirNav, LLC. All rights reserved. Privacy Policy  Contact